createdAt,value
2019-02-16T00:01:06.313Z,50.48
2019-02-16T00:03:35.991Z,50.32
2019-02-16T00:06:05.801Z,50.39
2019-02-16T00:08:35.451Z,50.55
2019-02-16T00:11:05.167Z,50.62
2019-02-16T00:13:34.837Z,50.60
2019-02-16T00:16:04.557Z,50.51
2019-02-16T00:18:34.425Z,50.48
2019-02-16T00:21:04.442Z,50.68
2019-02-16T00:23:34.649Z,50.78
2019-02-16T00:26:04.383Z,50.86
2019-02-16T00:28:34.052Z,50.93
2019-02-16T00:31:03.801Z,50.94
2019-02-16T00:33:33.491Z,51.01
2019-02-16T00:36:03.148Z,50.84
2019-02-16T00:38:32.821Z,50.94
2019-02-16T00:41:02.541Z,50.97
2019-02-16T00:43:32.250Z,51.14
2019-02-16T00:46:01.922Z,51.27
2019-02-16T00:48:31.621Z,51.30
2019-02-16T00:51:01.292Z,51.35
2019-02-16T00:53:31.006Z,51.41
2019-02-16T00:56:01.017Z,51.49
2019-02-16T00:58:30.859Z,51.67
2019-02-16T01:01:00.530Z,51.93
2019-02-16T01:03:30.159Z,52.03
2019-02-16T01:05:59.921Z,52.21
2019-02-16T01:08:29.561Z,52.39
2019-02-16T01:10:59.257Z,52.46
2019-02-16T01:13:28.935Z,52.60
2019-02-16T01:15:58.615Z,52.58
2019-02-16T01:18:28.592Z,52.62
2019-02-16T01:20:58.528Z,52.70
2019-02-16T01:23:28.202Z,52.81
2019-02-16T01:25:57.934Z,52.97
2019-02-16T01:28:27.568Z,53.02
2019-02-16T01:30:57.475Z,53.09
2019-02-16T01:33:27.226Z,53.00
2019-02-16T01:35:56.995Z,52.94
2019-02-16T01:38:26.746Z,53.18
2019-02-16T01:40:56.511Z,53.33
2019-02-16T01:43:26.213Z,53.47
2019-02-16T01:45:55.931Z,53.50
2019-02-16T01:48:25.558Z,53.68
2019-02-16T01:50:55.252Z,53.87
2019-02-16T01:53:24.997Z,53.90
2019-02-16T01:55:54.785Z,54.12
2019-02-16T01:58:24.493Z,54.12
2019-02-16T02:00:54.318Z,54.35
2019-02-16T02:03:24.013Z,54.40
2019-02-16T02:05:53.675Z,54.54
2019-02-16T02:08:23.543Z,54.64
2019-02-16T02:10:53.451Z,54.72
2019-02-16T02:13:23.141Z,54.79
2019-02-16T02:15:52.879Z,54.82
2019-02-16T02:18:22.673Z,54.93
2019-02-16T02:20:52.367Z,54.93
2019-02-16T02:23:22.086Z,55.04
2019-02-16T02:25:51.919Z,55.13
2019-02-16T02:28:21.641Z,55.21
2019-02-16T02:30:51.326Z,55.36
2019-02-16T02:33:21.155Z,55.39
2019-02-16T02:35:50.954Z,55.55
2019-02-16T02:38:20.762Z,55.77
2019-02-16T02:40:50.463Z,55.75
2019-02-16T02:43:20.161Z,55.85
2019-02-16T02:45:49.882Z,56.00
2019-02-16T02:48:19.610Z,56.12
2019-02-16T02:50:49.334Z,56.28
2019-02-16T02:53:19.030Z,56.42
2019-02-16T02:55:48.860Z,56.40
2019-02-16T02:58:18.655Z,56.41
2019-02-16T03:00:48.797Z,56.54
2019-02-16T03:03:18.483Z,56.79
2019-02-16T03:05:49.568Z,56.75
2019-02-16T03:08:19.341Z,56.69
2019-02-16T03:10:49.040Z,56.96
2019-02-16T03:13:18.808Z,57.00
2019-02-16T03:15:48.778Z,56.96
2019-02-16T03:18:18.822Z,56.85
2019-02-16T03:20:48.618Z,57.16
2019-02-16T03:23:20.873Z,57.18
2019-02-16T03:26:09.798Z,57.22
2019-02-16T03:28:46.638Z,57.25
2019-02-16T03:31:49.762Z,57.42
2019-02-16T03:34:32.318Z,57.54
2019-02-16T03:37:18.412Z,57.53
2019-02-16T03:39:48.343Z,57.69
2019-02-16T03:42:18.237Z,57.74
2019-02-16T03:44:48.046Z,57.96
2019-02-16T03:47:17.849Z,57.72
2019-02-16T03:49:47.527Z,57.79
2019-02-16T03:52:17.230Z,57.91
2019-02-16T03:54:47.095Z,57.91
2019-02-16T03:57:16.991Z,57.99
2019-02-16T03:59:46.685Z,57.97
2019-02-16T04:02:16.569Z,58.00
2019-02-16T04:04:46.435Z,58.03
2019-02-16T04:07:16.170Z,57.91
2019-02-16T04:09:45.990Z,57.94
2019-02-16T04:12:15.793Z,58.32
2019-02-16T04:14:45.712Z,58.30
2019-02-16T04:17:15.446Z,58.39
2019-02-16T04:19:45.249Z,58.45
2019-02-16T04:22:24.254Z,58.62
2019-02-16T04:24:46.501Z,58.66
2019-02-16T04:27:16.220Z,58.67
2019-02-16T04:29:45.885Z,58.68
2019-02-16T04:32:15.540Z,58.85
2019-02-16T04:34:45.339Z,58.98
2019-02-16T04:37:14.975Z,58.88
2019-02-16T04:39:44.715Z,59.12
2019-02-16T04:42:14.413Z,59.03
2019-02-16T04:44:44.075Z,59.31
2019-02-16T04:47:13.823Z,59.59
2019-02-16T04:49:43.491Z,59.88
2019-02-16T04:52:13.154Z,59.78
2019-02-16T04:54:42.827Z,59.69
2019-02-16T04:57:12.546Z,59.73
2019-02-16T04:59:42.262Z,59.97
2019-02-16T05:02:12.023Z,59.96
2019-02-16T05:04:41.761Z,60.20
2019-02-16T05:07:11.517Z,60.42
2019-02-16T05:09:41.180Z,60.26
2019-02-16T05:12:10.861Z,60.31
2019-02-16T05:14:40.548Z,60.46
2019-02-16T05:17:10.318Z,60.53
2019-02-16T05:19:40.028Z,60.78
2019-02-16T05:22:09.834Z,60.52
2019-02-16T05:24:39.587Z,60.71
2019-02-16T05:27:09.348Z,60.58
2019-02-16T05:29:39.123Z,60.84
2019-02-16T05:32:08.878Z,60.84
2019-02-16T05:34:38.512Z,61.03
2019-02-16T05:37:08.185Z,60.98
2019-02-16T05:39:37.909Z,61.04
2019-02-16T05:42:07.688Z,61.20
2019-02-16T05:44:37.411Z,60.90
2019-02-16T05:47:07.109Z,60.57
2019-02-16T05:49:36.797Z,60.90
2019-02-16T05:52:06.546Z,61.04
2019-02-16T05:54:36.273Z,61.05
2019-02-16T05:57:06.034Z,60.95
2019-02-16T05:59:35.738Z,60.91
2019-02-16T06:02:05.462Z,60.95
2019-02-16T06:04:35.145Z,60.92
2019-02-16T06:07:05.013Z,60.87
2019-02-16T06:09:34.748Z,61.00
2019-02-16T06:12:04.406Z,60.92
2019-02-16T06:14:34.103Z,60.62
2019-02-16T06:17:03.760Z,60.81
2019-02-16T06:19:33.443Z,60.88
2019-02-16T06:22:03.195Z,60.72
2019-02-16T06:24:32.914Z,60.82
2019-02-16T06:27:02.611Z,60.79
2019-02-16T06:29:32.428Z,60.62
2019-02-16T06:32:02.159Z,60.68
2019-02-16T06:34:32.399Z,60.69
2019-02-16T06:37:03.944Z,60.74
2019-02-16T06:39:33.715Z,60.66
2019-02-16T06:42:03.376Z,60.80
2019-02-16T06:44:33.124Z,60.69
2019-02-16T06:47:02.765Z,60.77
2019-02-16T06:49:32.518Z,60.48
2019-02-16T06:52:02.353Z,60.52
2019-02-16T06:54:32.001Z,60.29
2019-02-16T06:57:12.418Z,60.48
2019-02-16T06:59:42.164Z,60.35
2019-02-16T07:02:31.646Z,60.27
2019-02-16T07:05:10.418Z,60.25
2019-02-16T07:07:40.257Z,60.18
2019-02-16T07:10:10.711Z,60.18
2019-02-16T07:12:40.460Z,60.02
2019-02-16T07:15:10.290Z,59.94
2019-02-16T07:17:47.496Z,59.80
2019-02-16T07:20:19.201Z,59.57
2019-02-16T07:22:49.026Z,59.54
2019-02-16T07:25:18.748Z,59.36
2019-02-16T07:28:09.339Z,59.31
2019-02-16T07:30:39.013Z,59.04
2019-02-16T07:33:08.897Z,58.76
2019-02-16T07:35:38.577Z,58.74
2019-02-16T07:38:08.336Z,58.63
2019-02-16T07:40:38.024Z,58.08
2019-02-16T07:43:09.352Z,57.99
2019-02-16T07:45:52.649Z,58.10
2019-02-16T07:48:23.981Z,57.70
2019-02-16T07:50:57.756Z,57.77
2019-02-16T07:53:31.262Z,57.45
2019-02-16T07:56:17.867Z,57.26
2019-02-16T07:58:49.216Z,57.10
2019-02-16T08:01:20.576Z,56.60
2019-02-16T08:03:51.922Z,56.60
2019-02-16T08:06:39.716Z,56.62
2019-02-16T08:09:16.887Z,56.57
2019-02-16T08:11:48.198Z,56.08
2019-02-16T08:14:20.728Z,56.00
2019-02-16T08:17:04.189Z,55.78
2019-02-16T08:19:44.148Z,55.30
2019-02-16T08:22:24.597Z,54.96
2019-02-16T08:25:00.022Z,54.94
2019-02-16T08:27:32.169Z,54.52
2019-02-16T08:30:19.493Z,54.12
2019-02-16T08:32:53.205Z,53.77
2019-02-16T08:35:39.777Z,53.44
2019-02-16T08:38:11.902Z,53.12
2019-02-16T08:40:52.340Z,52.97
2019-02-16T08:43:41.643Z,53.24
2019-02-16T08:46:13.035Z,53.10
2019-02-16T08:48:47.141Z,53.08
2019-02-16T08:51:33.207Z,52.87
2019-02-16T08:54:19.552Z,54.33
2019-02-16T08:56:50.890Z,52.57
2019-02-16T08:59:22.210Z,51.75
2019-02-16T09:02:00.114Z,51.83
2019-02-16T09:04:33.858Z,51.33
2019-02-16T09:07:08.237Z,50.72
2019-02-16T09:09:51.248Z,50.62
2019-02-16T09:12:28.739Z,50.65
2019-02-16T09:15:01.065Z,50.75
2019-02-16T09:17:48.702Z,50.84
2019-02-16T09:20:25.561Z,50.54
2019-02-16T09:23:12.775Z,50.34
2019-02-16T09:25:56.288Z,50.17
2019-02-16T09:28:43.802Z,50.23
2019-02-16T09:31:30.442Z,50.29
2019-02-16T09:34:01.876Z,50.58
2019-02-16T09:36:39.161Z,49.74
2019-02-16T09:39:26.115Z,49.41
2019-02-16T09:41:57.715Z,49.12
2019-02-16T09:44:29.080Z,49.04
2019-02-16T09:47:00.377Z,49.05
2019-02-16T09:49:47.837Z,49.13
2019-02-16T09:52:30.794Z,49.28
2019-02-16T09:55:04.848Z,49.37
2019-02-16T09:57:45.105Z,49.32
2019-02-16T10:00:22.797Z,49.42
2019-02-16T10:03:01.598Z,49.06
2019-02-16T10:05:46.198Z,49.38
2019-02-16T10:08:17.521Z,50.03
2019-02-16T10:10:51.609Z,49.71
2019-02-16T10:13:31.648Z,49.45
2019-02-16T10:16:08.471Z,49.40
2019-02-16T10:18:39.788Z,49.32
2019-02-16T10:21:26.266Z,48.76
2019-02-16T10:24:06.828Z,48.69
2019-02-16T10:26:41.031Z,48.86
2019-02-16T10:29:21.280Z,48.71
2019-02-16T10:31:58.491Z,48.68
2019-02-16T10:34:35.473Z,48.46
2019-02-16T10:37:06.860Z,48.41
2019-02-16T10:39:40.649Z,48.15
2019-02-16T10:42:11.993Z,48.39
2019-02-16T10:44:43.642Z,48.51
2019-02-16T10:47:15.047Z,48.43
2019-02-16T10:49:55.761Z,48.42
2019-02-16T10:52:27.113Z,48.18
2019-02-16T10:55:01.430Z,48.38
2019-02-16T10:57:48.628Z,48.38
2019-02-16T11:00:29.922Z,48.24
2019-02-16T11:03:01.442Z,48.18
2019-02-16T11:05:35.697Z,48.13
2019-02-16T11:08:22.562Z,48.05
2019-02-16T11:10:59.809Z,48.20
2019-02-16T11:13:32.235Z,48.35
2019-02-16T11:16:03.559Z,47.90
2019-02-16T11:18:34.883Z,47.95
2019-02-16T11:21:12.241Z,47.95
2019-02-16T11:23:58.462Z,48.31
2019-02-16T11:26:29.745Z,48.12
2019-02-16T11:28:59.288Z,48.22
2019-02-16T11:31:46.702Z,48.34
2019-02-16T11:34:34.601Z,48.00
2019-02-16T11:37:06.027Z,48.49
2019-02-16T11:39:41.199Z,48.54
2019-02-16T11:42:19.146Z,48.51
2019-02-16T11:45:08.311Z,48.35
2019-02-16T11:47:48.342Z,48.50
2019-02-16T11:50:28.668Z,48.14
2019-02-16T11:53:15.795Z,48.21
2019-02-16T11:56:03.386Z,48.05
2019-02-16T11:58:37.798Z,47.96
2019-02-16T12:01:09.252Z,47.71
2019-02-16T12:03:48.384Z,47.76
2019-02-16T12:06:19.728Z,47.84
2019-02-16T12:09:02.794Z,47.77
2019-02-16T12:11:40.040Z,47.49
2019-02-16T12:14:11.468Z,47.27
2019-02-16T12:16:59.125Z,47.36
2019-02-16T12:19:39.213Z,47.47
2019-02-16T12:22:10.516Z,47.03
2019-02-16T12:25:02.977Z,46.94
2019-02-16T12:27:23.170Z,46.96
2019-02-16T12:30:06.703Z,47.10
2019-02-16T12:32:56.245Z,47.20
2019-02-16T12:35:33.490Z,47.27
2019-02-16T12:38:17.141Z,47.38
2019-02-16T12:40:51.187Z,47.24
2019-02-16T12:43:31.313Z,47.24
2019-02-16T12:46:05.545Z,47.15
2019-02-16T12:48:37.005Z,47.21
2019-02-16T12:51:11.233Z,47.31
2019-02-16T12:53:42.584Z,47.08
2019-02-16T12:56:14.188Z,46.80
2019-02-16T12:58:45.786Z,46.63
2019-02-16T13:01:33.408Z,46.43
2019-02-16T13:04:07.416Z,46.17
2019-02-16T13:06:51.023Z,44.66
2019-02-16T13:09:25.092Z,44.42
2019-02-16T13:12:08.438Z,44.11
2019-02-16T13:14:55.230Z,44.76
2019-02-16T13:17:24.739Z,43.62
2019-02-16T13:20:05.284Z,43.44
2019-02-16T13:22:36.668Z,42.85
2019-02-16T13:25:23.898Z,43.08
2019-02-16T13:27:53.685Z,45.31
2019-02-16T13:30:38.003Z,43.71
2019-02-16T13:33:18.236Z,43.16
2019-02-16T13:35:53.880Z,43.16
2019-02-16T13:38:40.280Z,42.15
2019-02-16T13:41:11.786Z,43.00
2019-02-16T13:43:48.753Z,42.80
2019-02-16T13:46:20.192Z,42.47
2019-02-16T13:48:51.550Z,41.88
2019-02-16T13:51:22.907Z,41.55
2019-02-16T13:54:03.331Z,42.21
2019-02-16T13:56:46.432Z,42.41
2019-02-16T13:59:23.880Z,42.65
2019-02-16T14:02:11.129Z,41.66
2019-02-16T14:04:43.071Z,41.75
2019-02-16T14:07:29.222Z,41.88
2019-02-16T14:10:07.917Z,41.36
2019-02-16T14:12:42.032Z,41.58
2019-02-16T14:15:11.507Z,41.12
2019-02-16T14:17:42.857Z,41.85
2019-02-16T14:20:12.716Z,41.20
2019-02-16T14:22:42.377Z,41.57
2019-02-16T14:25:13.886Z,42.09
2019-02-16T14:27:43.683Z,42.27
2019-02-16T14:30:14.540Z,41.60
2019-02-16T14:32:44.280Z,42.22
2019-02-16T14:35:14.044Z,41.58
2019-02-16T14:37:48.383Z,40.80
2019-02-16T14:40:18.124Z,40.85
2019-02-16T14:42:47.828Z,41.30
2019-02-16T14:45:17.642Z,41.17
2019-02-16T14:47:47.439Z,42.44
2019-02-16T14:50:17.115Z,41.59
2019-02-16T14:52:48.648Z,41.93
2019-02-16T14:55:19.702Z,41.83
2019-02-16T14:57:49.450Z,42.13
2019-02-16T15:00:20.398Z,42.53
2019-02-16T15:02:50.363Z,42.36
2019-02-16T15:05:20.117Z,41.13
2019-02-16T15:07:49.770Z,41.67
2019-02-16T15:10:19.504Z,42.81
2019-02-16T15:12:49.145Z,42.18
2019-02-16T15:15:19.035Z,41.92
2019-02-16T15:17:48.701Z,42.58
2019-02-16T15:20:18.952Z,42.75
2019-02-16T15:22:48.693Z,42.89
2019-02-16T15:25:18.370Z,42.81
2019-02-16T15:27:48.060Z,42.93
2019-02-16T15:30:22.159Z,42.94
2019-02-16T15:32:51.942Z,43.08
2019-02-16T15:35:21.650Z,43.95
2019-02-16T15:37:51.444Z,43.93
2019-02-16T15:40:21.103Z,43.75
2019-02-16T15:42:50.954Z,44.05
2019-02-16T15:45:20.688Z,44.02
2019-02-16T15:47:50.439Z,44.21
2019-02-16T15:50:20.171Z,44.43
2019-02-16T15:52:49.895Z,44.50
2019-02-16T15:55:19.740Z,44.47
2019-02-16T15:57:49.506Z,44.64
2019-02-16T16:00:22.571Z,44.85
2019-02-16T16:02:52.456Z,45.06
2019-02-16T16:05:22.155Z,45.39
2019-02-16T16:07:53.688Z,45.36
2019-02-16T16:10:27.552Z,45.71
2019-02-16T16:13:04.868Z,45.95
2019-02-16T16:15:44.599Z,46.00
2019-02-16T16:18:22.221Z,46.32
2019-02-16T16:21:02.441Z,46.82
2019-02-16T16:23:36.451Z,47.09
2019-02-16T16:26:18.870Z,47.37
2019-02-16T16:28:43.945Z,47.25
2019-02-16T16:31:17.874Z,47.60
2019-02-16T16:33:57.729Z,48.01
2019-02-16T16:36:29.044Z,48.17
2019-02-16T16:39:10.407Z,48.35
2019-02-16T16:41:47.715Z,48.55
2019-02-16T16:44:21.487Z,48.75
2019-02-16T16:47:01.291Z,49.06
2019-02-16T16:49:32.652Z,49.38
2019-02-16T16:52:06.762Z,49.62
2019-02-16T16:54:46.628Z,49.83
2019-02-16T16:57:26.721Z,50.16
2019-02-16T17:00:00.855Z,50.63
2019-02-16T17:02:37.631Z,50.79
2019-02-16T17:05:12.709Z,50.97
2019-02-16T17:07:44.170Z,51.09
2019-02-16T17:10:28.709Z,51.19
2019-02-16T17:13:02.412Z,51.41
2019-02-16T17:15:36.734Z,51.52
2019-02-16T17:18:26.130Z,51.49
2019-02-16T17:21:13.498Z,51.63
2019-02-16T17:23:47.501Z,51.81
2019-02-16T17:26:37.483Z,52.22
2019-02-16T17:29:14.140Z,52.54
2019-02-16T17:31:51.060Z,52.59
2019-02-16T17:34:22.346Z,52.78
2019-02-16T17:37:06.014Z,53.08
2019-02-16T17:39:40.155Z,53.34
2019-02-16T17:42:15.525Z,53.55
2019-02-16T17:44:47.389Z,53.87
2019-02-16T17:47:16.863Z,54.18
2019-02-16T17:49:50.836Z,54.32
2019-02-16T17:52:38.395Z,54.42
2019-02-16T17:55:26.748Z,54.60
2019-02-16T17:58:06.884Z,54.16
2019-02-16T18:00:38.247Z,54.07
2019-02-16T18:03:07.698Z,54.28
2019-02-16T18:05:39.015Z,54.65
2019-02-16T18:08:11.317Z,55.09
2019-02-16T18:10:58.881Z,55.42
2019-02-16T18:13:30.460Z,55.58
2019-02-16T18:16:11.256Z,55.47
2019-02-16T18:18:51.284Z,55.66
2019-02-16T18:21:22.652Z,55.92
2019-02-16T18:23:54.053Z,56.20
2019-02-16T18:26:28.401Z,56.56
2019-02-16T18:29:14.945Z,56.78
2019-02-16T18:32:02.065Z,56.86
2019-02-16T18:34:39.208Z,56.92
2019-02-16T18:37:19.630Z,56.68
2019-02-16T18:40:06.928Z,56.90
2019-02-16T18:42:51.291Z,57.08
2019-02-16T18:45:22.732Z,57.37
2019-02-16T18:47:54.961Z,57.75
2019-02-16T18:50:33.716Z,57.85
2019-02-16T18:53:08.127Z,58.19
2019-02-16T18:55:39.466Z,58.36
2019-02-16T18:58:09.022Z,58.46
2019-02-16T19:01:13.395Z,58.62
2019-02-16T19:03:53.796Z,58.95
2019-02-16T19:06:36.975Z,59.38
2019-02-16T19:09:08.811Z,59.64
2019-02-16T19:11:55.608Z,59.85
2019-02-16T19:14:30.820Z,59.93
2019-02-16T19:17:10.286Z,59.89
2019-02-16T19:19:41.775Z,60.21
2019-02-16T19:22:25.207Z,60.16
2019-02-16T19:24:54.621Z,60.52
2019-02-16T19:27:29.175Z,60.64
2019-02-16T19:30:18.305Z,60.93
2019-02-16T19:33:05.745Z,61.14
2019-02-16T19:35:48.833Z,61.53
2019-02-16T19:38:20.214Z,61.72
2019-02-16T19:40:57.063Z,61.52
2019-02-16T19:43:28.400Z,61.56
2019-02-16T19:46:00.260Z,61.65
2019-02-16T19:48:31.619Z,61.84
2019-02-16T19:51:21.188Z,61.84
2019-02-16T19:54:10.469Z,61.76
2019-02-16T19:56:41.851Z,62.09
2019-02-16T19:59:16.191Z,62.37
2019-02-16T20:01:59.745Z,62.44
2019-02-16T20:04:31.098Z,62.44
2019-02-16T20:07:02.479Z,62.51
2019-02-16T20:09:36.904Z,62.34
2019-02-16T20:12:09.376Z,62.52
2019-02-16T20:14:42.365Z,62.55
2019-02-16T20:17:16.377Z,62.61
2019-02-16T20:19:47.983Z,62.86
2019-02-16T20:22:22.116Z,63.14
2019-02-16T20:24:56.303Z,62.98
2019-02-16T20:27:37.647Z,63.26
2019-02-16T20:30:17.221Z,63.54
2019-02-16T20:33:03.925Z,63.72
2019-02-16T20:35:44.282Z,63.59
2019-02-16T20:38:13.742Z,63.69
2019-02-16T20:40:56.828Z,63.81
2019-02-16T20:43:44.149Z,63.86
2019-02-16T20:46:31.686Z,63.85
2019-02-16T20:49:15.419Z,64.02
2019-02-16T20:52:01.976Z,64.16
2019-02-16T20:54:49.363Z,64.02
2019-02-16T20:57:20.771Z,64.04
2019-02-16T20:59:54.851Z,63.91
2019-02-16T21:02:31.766Z,64.47
2019-02-16T21:05:06.233Z,65.21
2019-02-16T21:07:37.637Z,65.44
2019-02-16T21:10:10.693Z,65.83
2019-02-16T21:12:41.970Z,65.91
2019-02-16T21:15:13.316Z,65.31
2019-02-16T21:17:47.422Z,65.64
2019-02-16T21:20:35.020Z,65.82
2019-02-16T21:23:04.438Z,66.52
2019-02-16T21:25:44.461Z,66.71
2019-02-16T21:28:15.923Z,67.28
2019-02-16T21:30:47.257Z,66.86
2019-02-16T21:33:24.698Z,66.60
2019-02-16T21:36:12.272Z,66.51
2019-02-16T21:38:51.281Z,66.30
2019-02-16T21:41:24.882Z,66.50
2019-02-16T21:43:59.054Z,66.79
2019-02-16T21:46:30.367Z,66.72
2019-02-16T21:49:08.484Z,66.55
2019-02-16T21:51:43.619Z,66.62
2019-02-16T21:54:23.859Z,66.47
2019-02-16T21:56:57.712Z,66.74
2019-02-16T21:59:41.067Z,66.40
2019-02-16T22:02:12.528Z,66.72
2019-02-16T22:05:00.160Z,66.83
2019-02-16T22:07:34.235Z,66.96
2019-02-16T22:10:05.657Z,66.98
2019-02-16T22:12:37.147Z,66.94
2019-02-16T22:15:09.407Z,66.92
2019-02-16T22:17:39.172Z,66.81
2019-02-16T22:20:10.587Z,66.55
2019-02-16T22:22:40.361Z,66.64
2019-02-16T22:25:10.561Z,66.92
2019-02-16T22:27:40.325Z,66.99
2019-02-16T22:30:11.686Z,67.01
2019-02-16T22:32:41.402Z,67.23
2019-02-16T22:35:11.203Z,67.47
2019-02-16T22:37:40.891Z,67.50
2019-02-16T22:40:10.972Z,67.55
2019-02-16T22:42:40.652Z,67.48
2019-02-16T22:45:12.665Z,67.56
2019-02-16T22:47:42.369Z,67.45
2019-02-16T22:50:12.669Z,67.58
2019-02-16T22:52:42.362Z,67.44
2019-02-16T22:55:12.265Z,67.31
2019-02-16T22:57:41.922Z,67.43
2019-02-16T23:00:20.014Z,67.60
2019-02-16T23:02:50.003Z,67.68
2019-02-16T23:05:19.747Z,67.74
2019-02-16T23:07:49.506Z,67.60
2019-02-16T23:10:19.180Z,67.55
2019-02-16T23:12:49.062Z,67.76
2019-02-16T23:15:18.845Z,68.05
2019-02-16T23:17:48.692Z,68.08
2019-02-16T23:20:18.486Z,68.14
2019-02-16T23:22:48.435Z,68.23
2019-02-16T23:25:18.240Z,67.94
2019-02-16T23:27:48.007Z,67.97
2019-02-16T23:30:17.740Z,68.01
2019-02-16T23:32:47.453Z,68.11
2019-02-16T23:35:17.141Z,68.38
2019-02-16T23:37:46.827Z,68.39
2019-02-16T23:40:16.645Z,68.29
2019-02-16T23:42:46.324Z,68.14
2019-02-16T23:45:16.140Z,68.26
2019-02-16T23:47:45.932Z,68.50
2019-02-16T23:50:16.247Z,68.65
2019-02-16T23:52:45.939Z,68.54
2019-02-16T23:55:15.753Z,68.34
2019-02-16T23:57:45.432Z,68.50
